KRAL/RAL METAR and TAF weather

Enter ICAO airport designator
Station Type Date Time Source
KRAL METAR 2020/02/27 14:53 UTC NOAA

KRAL 271453Z 04010KT 10SM CLR 11/M04 A3020 RMK AO2 SLP215 T01111039 53003


Station Type Date Time Source
KRAL Decoded METAR 2020/02/27 14:53 UTC NOAA

RIVERSIDE MUNICIPAL AIRPORT , CA, United States (KRAL) 33-57N 117-27W 252M
Feb 27, 2020 - 09:53 AM EST / 2020.02.27 1453 UTC
Wind: from the NE (040 degrees) at 12 MPH (10 KT):0
Visibility: 10 mile(s):0
Sky conditions: clear
Temperature: 52.0 F (11.1 C)
Dew Point: 25.0 F (-3.9 C)
Relative Humidity: 34%
Pressure (altimeter): 30.2 in. Hg (1022 hPa)
Pressure tendency: 0.01 inches (0.3 hPa) higher than three hours ago
ob: KRAL 271453Z 04010KT 10SM CLR 11/M04 A3020 RMK AO2 SLP215 T01111039 53003
cycle: 15

Station Type Date Time Source
KRAL TAF UTC NOAA

Error!

Example: see airport list